Time;durP1;ratioP1;P1;durP2;ratioP2;P2;SDS_P1;SDS_P2;PMS_P1;PMS_P2;Temp;Humidity;BMP_temperature;BMP_pressure;BME280_temperature;BME280_humidity;BME280_pressure;Samples;Min_cycle;Max_cycle;Signal;HPM_P1;HPM_P2
2023/04/15 00:02:17;;;;;;;8.00;4.82;;;8.20;99.90;;;;;;6303930;22;20102;-68
2023/04/15 00:04:46;;;;;;;6.55;4.72;;;8.20;99.90;;;;;;6332541;22;20103;-68
2023/04/15 00:07:13;;;;;;;9.18;4.50;;;8.20;99.90;;;;;;6332655;22;20026;-68
2023/04/15 00:09:41;;;;;;;8.60;4.70;;;8.10;99.90;;;;;;6332359;22;20022;-68
2023/04/15 00:12:07;;;;;;;7.97;5.50;;;8.20;99.90;;;;;;6332213;22;20335;-68
2023/04/15 00:14:35;;;;;;;9.55;4.63;;;8.30;99.90;;;;;;6332483;22;20340;-67
2023/04/15 00:17:02;;;;;;;9.55;5.13;;;8.20;99.90;;;;;;6332548;22;20321;-67
2023/04/15 00:19:28;;;;;;;8.40;5.20;;;8.20;99.90;;;;;;6332250;22;20093;-67
2023/04/15 00:21:54;;;;;;;7.70;5.60;;;8.20;99.90;;;;;;6332081;22;20023;-67
2023/04/15 00:24:20;;;;;;;7.05;4.80;;;8.10;99.90;;;;;;6332508;22;20335;-68
2023/04/15 00:26:46;;;;;;;6.95;5.10;;;8.10;99.90;;;;;;6332384;22;20018;-68
2023/04/15 00:29:12;;;;;;;10.07;5.57;;;8.10;99.90;;;;;;6332272;22;20022;-68
2023/04/15 00:31:38;;;;;;;9.07;5.22;;;8.00;99.90;;;;;;6304043;22;20338;-68
2023/04/15 00:34:03;;;;;;;15.23;5.97;;;8.00;99.90;;;;;;6332199;22;20023;-68
2023/04/15 00:36:30;;;;;;;10.30;5.95;;;8.00;99.90;;;;;;6332615;22;20520;-68
2023/04/15 00:38:56;;;;;;;7.85;4.80;;;7.90;99.90;;;;;;6332294;22;20115;-68
2023/04/15 00:41:22;;;;;;;13.85;5.72;;;7.90;99.90;;;;;;6331980;22;20022;-68
2023/04/15 00:43:48;;;;;;;6.68;5.38;;;7.80;99.90;;;;;;6331801;22;20031;-68
2023/04/15 00:46:15;;;;;;;9.75;5.25;;;7.80;99.90;;;;;;6332147;22;20065;-68
2023/04/15 00:48:41;;;;;;;12.40;5.90;;;7.80;99.90;;;;;;6331514;22;20090;-67
2023/04/15 00:51:08;;;;;;;8.95;5.55;;;7.80;99.90;;;;;;6303971;22;20118;-68
2023/04/15 00:53:34;;;;;;;13.10;5.57;;;7.80;99.90;;;;;;6331635;22;20763;-68
2023/04/15 00:55:59;;;;;;;13.02;5.22;;;7.70;99.90;;;;;;6331830;22;20050;-68
2023/04/15 00:58:26;;;;;;;7.25;4.90;;;7.60;99.90;;;;;;6332269;22;20019;-68
2023/04/15 01:00:54;;;;;;;7.97;4.88;;;7.70;99.90;;;;;;6331945;22;20296;-68
2023/04/15 01:03:20;;;;;;;7.90;5.10;;;7.60;99.90;;;;;;6331667;22;20015;-68
2023/04/15 01:05:46;;;;;;;9.90;5.30;;;7.60;99.90;;;;;;6331717;22;20152;-68
2023/04/15 01:08:11;;;;;;;8.07;5.40;;;7.50;99.90;;;;;;6332099;22;20019;-68
2023/04/15 01:10:38;;;;;;;11.20;5.90;;;7.50;99.90;;;;;;6332471;22;20018;-68
2023/04/15 01:13:04;;;;;;;12.23;6.00;;;7.40;99.90;;;;;;6332123;22;20022;-68
2023/04/15 01:15:30;;;;;;;8.73;5.30;;;7.40;99.90;;;;;;6332453;22;20081;-68
2023/04/15 01:18:01;;;;;;;11.98;5.90;;;7.30;99.90;;;;;;6332279;22;20063;-68
2023/04/15 01:20:28;;;;;;;12.35;5.85;;;7.30;99.90;;;;;;6332475;22;20027;-69
2023/04/15 01:22:55;;;;;;;8.27;5.22;;;7.40;99.90;;;;;;6332269;22;20454;-68
2023/04/15 01:25:31;;;;;;;8.57;5.30;;;7.30;99.90;;;;;;6304348;22;20022;-68
2023/04/15 01:27:58;;;;;;;8.50;5.10;;;7.30;99.90;;;;;;6332384;22;20056;-68
2023/04/15 01:30:25;;;;;;;5.70;5.05;;;7.20;99.90;;;;;;6332190;22;20316;-68
2023/04/15 01:32:52;;;;;;;12.57;5.90;;;7.20;99.90;;;;;;6303472;22;20014;-69
2023/04/15 01:35:18;;;;;;;10.57;5.47;;;7.20;99.90;;;;;;6332030;22;20014;-68
2023/04/15 01:37:44;;;;;;;7.00;5.20;;;7.20;99.90;;;;;;6331944;22;20114;-69
2023/04/15 01:40:10;;;;;;;8.30;5.80;;;7.10;99.90;;;;;;6303522;22;20023;-69
2023/04/15 01:42:36;;;;;;;8.98;4.80;;;7.10;99.90;;;;;;6331604;22;20433;-68
2023/04/15 01:45:02;;;;;;;11.07;5.22;;;7.10;99.90;;;;;;6331883;22;20496;-68
2023/04/15 01:47:28;;;;;;;8.57;5.00;;;6.90;99.90;;;;;;6332022;22;20010;-67
2023/04/15 01:49:54;;;;;;;9.23;5.22;;;6.90;99.90;;;;;;6332078;22;20409;-68
2023/04/15 01:52:19;;;;;;;5.90;5.03;;;6.90;99.90;;;;;;6331981;22;20011;-68
2023/04/15 01:54:45;;;;;;;10.68;5.25;;;6.90;99.90;;;;;;6331860;22;20015;-68
2023/04/15 01:57:11;;;;;;;8.02;5.28;;;6.80;99.90;;;;;;6331595;22;20014;-68
2023/04/15 01:59:37;;;;;;;13.98;5.50;;;6.80;99.90;;;;;;6331469;22;20057;-68
2023/04/15 02:02:03;;;;;;;14.05;5.85;;;6.70;99.90;;;;;;6303343;22;20019;-68
2023/04/15 02:04:29;;;;;;;15.85;6.43;;;6.70;99.90;;;;;;6303498;22;20023;-68
2023/04/15 02:06:55;;;;;;;7.57;5.57;;;6.70;99.90;;;;;;6332179;22;20342;-68
2023/04/15 02:09:21;;;;;;;10.90;6.85;;;6.70;99.90;;;;;;6306165;22;20090;-67
2023/04/15 02:11:47;;;;;;;8.35;5.78;;;6.70;99.90;;;;;;6333916;22;20022;-67
2023/04/15 02:14:13;;;;;;;10.05;5.75;;;6.80;99.90;;;;;;6334432;22;20127;-68
2023/04/15 02:16:39;;;;;;;9.75;5.47;;;6.70;99.90;;;;;;6334094;22;20493;-68
2023/04/15 02:19:05;;;;;;;11.27;5.88;;;6.60;99.90;;;;;;6333944;22;20027;-68
2023/04/15 02:21:30;;;;;;;10.00;6.10;;;6.70;99.90;;;;;;6333686;22;20029;-69
2023/04/15 02:23:56;;;;;;;9.30;5.25;;;6.70;99.90;;;;;;6333744;22;20026;-67
2023/04/15 02:26:23;;;;;;;8.52;5.63;;;6.60;99.90;;;;;;6333721;22;20473;-68
2023/04/15 02:28:50;;;;;;;12.05;6.03;;;6.60;99.90;;;;;;6333494;22;20010;-68
2023/04/15 02:31:16;;;;;;;7.85;5.78;;;6.70;99.90;;;;;;6332980;22;20015;-68
2023/04/15 02:33:42;;;;;;;9.73;6.18;;;6.60;99.90;;;;;;6280038;22;20026;-67
2023/04/15 02:36:09;;;;;;;9.40;5.72;;;6.60;99.90;;;;;;6333762;22;20458;-68
2023/04/15 02:38:34;;;;;;;13.27;6.90;;;6.60;99.90;;;;;;6305470;22;20034;-68
2023/04/15 02:41:00;;;;;;;9.73;5.93;;;6.60;99.90;;;;;;6333550;22;20022;-68
2023/04/15 02:43:26;;;;;;;10.52;5.82;;;6.70;99.90;;;;;;6333134;22;20094;-68
2023/04/15 02:45:52;;;;;;;9.30;7.55;;;6.70;99.90;;;;;;6332618;22;20029;-66
2023/04/15 02:48:19;;;;;;;13.07;7.95;;;6.70;99.90;;;;;;6333054;22;20106;-70
2023/04/15 02:50:45;;;;;;;11.13;7.53;;;6.70;99.90;;;;;;6333347;22;20022;-67
2023/04/15 02:53:13;;;;;;;10.43;6.97;;;6.70;99.90;;;;;;6333310;22;20194;-68
2023/04/15 02:55:39;;;;;;;13.00;7.85;;;6.70;99.90;;;;;;6333313;22;20704;-69
2023/04/15 02:58:05;;;;;;;12.13;7.53;;;6.70;99.90;;;;;;6333333;22;20026;-69
2023/04/15 03:00:30;;;;;;;14.15;8.20;;;6.70;99.90;;;;;;6332800;22;20123;-69
2023/04/15 03:03:04;;;;;;;12.30;7.43;;;6.70;99.90;;;;;;6279846;22;20135;-69
2023/04/15 03:05:30;;;;;;;13.25;7.35;;;6.60;99.90;;;;;;6305690;22;20338;-69
2023/04/15 03:07:56;;;;;;;13.70;7.15;;;6.70;99.90;;;;;;6305225;22;20014;-68
2023/04/15 03:10:22;;;;;;;13.02;7.65;;;6.70;99.90;;;;;;6365130;22;20030;-67
2023/04/15 03:12:48;;;;;;;12.15;7.60;;;6.60;99.90;;;;;;6365129;22;20541;-67
2023/04/15 03:15:15;;;;;;;11.70;7.07;;;6.60;99.90;;;;;;6364467;22;20041;-69
2023/04/15 03:17:41;;;;;;;12.73;7.07;;;6.50;99.90;;;;;;6336566;22;20156;-69
2023/04/15 03:20:08;;;;;;;10.75;7.43;;;6.50;99.90;;;;;;6335714;22;20065;-69
2023/04/15 03:22:34;;;;;;;15.98;7.28;;;6.50;99.90;;;;;;6336488;22;20083;-67
2023/04/15 03:24:59;;;;;;;13.73;8.70;;;6.50;99.90;;;;;;6336257;22;20023;-68
2023/04/15 03:27:25;;;;;;;12.90;7.85;;;6.50;99.90;;;;;;6336782;22;20034;-67
2023/04/15 03:29:51;;;;;;;13.63;7.80;;;6.40;99.90;;;;;;6364590;22;20049;-68
2023/04/15 03:32:17;;;;;;;15.82;7.80;;;6.40;99.90;;;;;;6364655;22;20426;-69
2023/04/15 03:34:43;;;;;;;13.65;7.50;;;6.40;99.90;;;;;;6310225;22;20029;-68
2023/04/15 03:37:08;;;;;;;13.43;8.13;;;6.40;99.90;;;;;;6364739;22;20018;-69
2023/04/15 03:39:34;;;;;;;14.52;8.98;;;6.50;99.90;;;;;;6364422;22;20090;-69
2023/04/15 03:42:00;;;;;;;12.52;8.27;;;6.40;99.90;;;;;;6364887;22;20042;-67
2023/04/15 03:44:27;;;;;;;11.82;7.88;;;6.40;99.90;;;;;;6363833;22;20026;-68
2023/04/15 03:46:53;;;;;;;12.48;7.35;;;6.40;99.90;;;;;;6364660;22;20014;-67
2023/04/15 03:49:19;;;;;;;14.82;8.02;;;6.30;99.90;;;;;;6364656;22;20096;-68
2023/04/15 03:51:45;;;;;;;15.93;8.40;;;6.40;99.90;;;;;;6364238;22;20091;-68
2023/04/15 03:54:14;;;;;;;12.88;8.05;;;6.40;99.90;;;;;;6364570;22;20018;-68
2023/04/15 03:56:39;;;;;;;13.85;7.85;;;6.40;99.90;;;;;;6336038;22;20018;-68
2023/04/15 03:59:05;;;;;;;11.23;7.95;;;6.30;99.90;;;;;;6364274;22;20090;-67
2023/04/15 04:01:31;;;;;;;12.68;8.10;;;6.30;99.90;;;;;;6364338;22;20528;-67
2023/04/15 04:03:57;;;;;;;12.15;7.40;;;6.30;99.90;;;;;;6335909;22;20029;-68
2023/04/15 04:06:22;;;;;;;11.38;7.85;;;6.20;99.90;;;;;;6335883;22;20037;-68
2023/04/15 04:08:48;;;;;;;14.75;8.50;;;6.30;99.90;;;;;;6364478;22;20038;-68
2023/04/15 04:11:14;;;;;;;11.18;7.60;;;6.20;99.90;;;;;;6336188;22;20506;-68
2023/04/15 04:13:39;;;;;;;13.43;8.38;;;6.20;99.90;;;;;;6364340;22;20010;-68
2023/04/15 04:16:05;;;;;;;13.10;8.48;;;6.20;99.90;;;;;;6364895;22;20015;-67
2023/04/15 04:18:32;;;;;;;13.40;7.18;;;6.20;99.90;;;;;;6336113;22;20420;-68
2023/04/15 04:20:57;;;;;;;11.75;7.75;;;6.10;99.90;;;;;;6364492;22;20014;-68
2023/04/15 04:23:23;;;;;;;13.50;7.60;;;6.10;99.90;;;;;;6310161;22;20018;-68
2023/04/15 04:25:49;;;;;;;14.70;8.85;;;6.00;99.90;;;;;;6363946;22;20098;-67
2023/04/15 04:28:14;;;;;;;15.77;8.52;;;6.00;99.90;;;;;;6363840;22;20018;-67
2023/04/15 04:30:40;;;;;;;12.25;8.07;;;5.90;99.90;;;;;;6364311;22;20010;-67
2023/04/15 04:33:06;;;;;;;15.60;9.85;;;6.00;99.90;;;;;;6363990;22;20510;-67
2023/04/15 04:35:33;;;;;;;15.38;8.55;;;5.90;99.90;;;;;;6363929;22;20420;-67
2023/04/15 04:38:00;;;;;;;15.48;8.70;;;5.90;99.90;;;;;;6363844;22;20125;-68
2023/04/15 04:40:26;;;;;;;18.23;8.80;;;5.90;99.90;;;;;;6335620;22;20016;-68
2023/04/15 04:42:53;;;;;;;15.98;9.88;;;5.90;99.90;;;;;;6335038;22;20033;-67
2023/04/15 04:45:19;;;;;;;16.20;8.77;;;5.90;99.90;;;;;;6364203;22;20022;-68
2023/04/15 04:47:46;;;;;;;15.52;9.80;;;5.90;99.90;;;;;;6363679;22;20072;-68
2023/04/15 04:50:12;;;;;;;14.65;8.65;;;5.90;99.90;;;;;;6364025;22;20018;-67
2023/04/15 04:52:38;;;;;;;14.80;9.13;;;5.80;99.90;;;;;;6363915;22;20014;-67
2023/04/15 04:55:04;;;;;;;15.50;8.85;;;5.80;99.90;;;;;;6363708;22;20050;-68
2023/04/15 04:57:30;;;;;;;14.63;8.60;;;5.80;99.90;;;;;;6364316;22;20019;-68
2023/04/15 04:59:56;;;;;;;13.57;8.63;;;5.80;99.90;;;;;;6335659;22;20044;-68
2023/04/15 05:02:22;;;;;;;14.00;8.90;;;5.80;99.90;;;;;;6364372;22;20022;-68
2023/04/15 05:04:49;;;;;;;15.35;8.82;;;5.80;99.90;;;;;;6364208;22;20637;-68
2023/04/15 05:07:14;;;;;;;18.17;9.75;;;5.80;99.90;;;;;;6364111;22;20021;-68
2023/04/15 05:09:40;;;;;;;13.13;8.23;;;5.70;99.90;;;;;;6363303;22;20665;-68
2023/04/15 05:12:13;;;;;;;14.15;8.70;;;5.80;99.90;;;;;;6363923;22;20068;-69
2023/04/15 05:14:39;;;;;;;14.80;8.82;;;5.70;99.90;;;;;;6335551;22;20026;-67
2023/04/15 05:17:05;;;;;;;14.00;9.20;;;5.80;99.90;;;;;;6309094;22;20469;-67
2023/04/15 05:19:31;;;;;;;14.95;9.02;;;5.80;99.90;;;;;;6363451;22;20014;-67
2023/04/15 05:21:56;;;;;;;16.73;9.07;;;5.70;99.90;;;;;;6363137;22;20034;-67
2023/04/15 05:24:22;;;;;;;15.07;9.45;;;5.60;99.90;;;;;;6363087;22;20029;-68
2023/04/15 05:26:48;;;;;;;16.13;9.13;;;5.70;99.90;;;;;;6363217;22;20774;-68
2023/04/15 05:29:13;;;;;;;15.82;9.18;;;5.60;99.90;;;;;;6363087;22;20022;-68
2023/04/15 05:31:42;;;;;;;18.20;9.50;;;5.70;99.90;;;;;;6362992;22;20105;-68
2023/04/15 05:34:09;;;;;;;16.92;10.30;;;5.80;99.90;;;;;;6363318;22;20046;-68
2023/04/15 05:36:34;;;;;;;13.73;8.70;;;5.80;99.90;;;;;;6363478;22;20022;-68
2023/04/15 05:39:00;;;;;;;16.75;9.32;;;5.80;99.90;;;;;;6334838;22;20570;-68
2023/04/15 05:41:27;;;;;;;14.52;9.13;;;5.90;99.90;;;;;;6335227;22;20018;-68
2023/04/15 05:43:53;;;;;;;16.42;10.02;;;5.90;99.90;;;;;;6362504;22;20054;-67
2023/04/15 05:46:18;;;;;;;16.67;9.27;;;5.80;99.90;;;;;;6363470;22;20032;-67
2023/04/15 05:48:44;;;;;;;16.98;9.65;;;5.90;99.90;;;;;;6363291;22;20344;-68
2023/04/15 05:51:10;;;;;;;16.67;9.43;;;5.90;99.90;;;;;;6363396;22;20024;-67
2023/04/15 05:53:36;;;;;;;17.63;9.88;;;5.90;99.90;;;;;;6362755;22;20053;-68
2023/04/15 05:56:01;;;;;;;16.27;9.88;;;6.00;99.90;;;;;;6335139;22;20022;-67
2023/04/15 05:58:27;;;;;;;17.02;9.88;;;5.90;99.90;;;;;;6334935;22;20349;-67
2023/04/15 06:00:53;;;;;;;17.27;9.90;;;6.00;99.90;;;;;;6334886;22;20100;-68
2023/04/15 06:03:18;;;;;;;19.60;11.07;;;6.00;99.90;;;;;;6363405;22;20022;-67
2023/04/15 06:05:44;;;;;;;15.45;9.55;;;6.10;99.90;;;;;;6363238;22;20101;-68
2023/04/15 06:08:10;;;;;;;17.13;10.27;;;6.00;99.90;;;;;;6362817;22;20014;-67
2023/04/15 06:10:36;;;;;;;17.50;10.25;;;6.10;99.90;;;;;;6363652;22;20445;-68
2023/04/15 06:13:05;;;;;;;19.55;9.80;;;6.20;99.90;;;;;;6363579;22;20025;-68
2023/04/15 06:15:31;;;;;;;16.85;9.50;;;6.10;99.90;;;;;;6335419;22;20018;-68
2023/04/15 06:17:57;;;;;;;17.40;10.45;;;6.20;99.90;;;;;;6363191;22;20116;-67
2023/04/15 06:20:22;;;;;;;18.38;10.50;;;6.20;99.90;;;;;;6363361;22;20014;-67
2023/04/15 06:22:48;;;;;;;18.35;10.38;;;6.30;99.90;;;;;;6363062;22;20599;-69
2023/04/15 06:25:14;;;;;;;18.08;10.98;;;6.30;99.90;;;;;;6308796;22;20125;-69
2023/04/15 06:27:40;;;;;;;17.40;9.98;;;6.40;99.90;;;;;;6363078;22;20037;-69
2023/04/15 06:30:06;;;;;;;17.27;9.60;;;6.40;99.90;;;;;;6363052;22;20014;-68
2023/04/15 06:32:32;;;;;;;17.50;9.85;;;6.50;99.90;;;;;;6363042;22;20018;-68
2023/04/15 06:34:58;;;;;;;16.60;9.50;;;6.50;99.90;;;;;;6363013;22;20026;-66
2023/04/15 06:37:24;;;;;;;22.48;10.30;;;6.50;99.90;;;;;;6308619;22;20022;-67
2023/04/15 06:39:50;;;;;;;15.73;9.13;;;6.70;99.90;;;;;;6334862;22;20028;-67
2023/04/15 06:42:16;;;;;;;17.92;11.18;;;6.70;99.90;;;;;;6363642;22;20065;-67
2023/04/15 06:44:42;;;;;;;17.08;10.32;;;6.70;99.90;;;;;;6363693;22;20023;-68
2023/04/15 06:47:08;;;;;;;17.02;10.05;;;6.80;99.90;;;;;;6363590;22;20454;-67
2023/04/15 06:49:34;;;;;;;17.35;9.68;;;6.80;99.90;;;;;;6363295;22;20053;-68
2023/04/15 06:52:00;;;;;;;17.17;9.38;;;6.80;99.90;;;;;;6308402;22;20018;-68
2023/04/15 06:54:26;;;;;;;14.05;8.85;;;6.90;99.90;;;;;;6363540;22;20015;-67
2023/04/15 06:56:52;;;;;;;16.85;9.63;;;6.90;99.90;;;;;;6336398;22;20022;-68
2023/04/15 06:59:17;;;;;;;17.42;10.57;;;7.00;99.90;;;;;;6336518;22;20026;-68
2023/04/15 07:01:43;;;;;;;16.48;10.15;;;7.00;99.90;;;;;;6336712;22;20029;-68
2023/04/15 07:04:10;;;;;;;17.85;10.32;;;7.10;99.90;;;;;;6336747;22;20045;-68
2023/04/15 07:06:35;;;;;;;16.80;9.88;;;7.00;99.90;;;;;;6364712;22;20018;-68
2023/04/15 07:09:02;;;;;;;16.08;10.02;;;7.10;99.90;;;;;;6336545;22;20099;-68
2023/04/15 07:11:28;;;;;;;18.27;11.35;;;7.10;99.90;;;;;;6364624;22;20059;-68
2023/04/15 07:13:53;;;;;;;16.50;10.35;;;7.10;99.90;;;;;;6336325;22;20026;-69
2023/04/15 07:16:20;;;;;;;17.63;9.68;;;7.20;99.90;;;;;;6364972;22;20022;-69
2023/04/15 07:18:45;;;;;;;20.02;9.93;;;7.20;99.90;;;;;;6364943;22;20018;-69
2023/04/15 07:21:11;;;;;;;16.60;10.52;;;7.30;99.90;;;;;;6364585;22;20151;-68
2023/04/15 07:23:37;;;;;;;16.25;9.02;;;7.40;99.90;;;;;;6365528;22;20110;-68
2023/04/15 07:26:03;;;;;;;13.93;9.45;;;7.30;99.90;;;;;;6336907;22;20033;-68
2023/04/15 07:28:29;;;;;;;17.13;10.52;;;7.40;99.90;;;;;;6365497;22;20027;-69
2023/04/15 07:30:56;;;;;;;18.90;10.07;;;7.50;99.90;;;;;;6336916;22;20340;-68
2023/04/15 07:33:22;;;;;;;15.95;9.63;;;7.60;99.90;;;;;;6365344;22;20022;-68
2023/04/15 07:35:48;;;;;;;16.27;8.75;;;7.60;99.90;;;;;;6365118;22;20646;-68
2023/04/15 07:38:14;;;;;;;17.33;9.25;;;7.70;99.90;;;;;;6364842;22;20441;-67
2023/04/15 07:40:41;;;;;;;17.05;9.07;;;7.70;99.90;;;;;;6365218;22;20025;-68
2023/04/15 07:43:07;;;;;;;17.23;9.48;;;7.80;99.90;;;;;;6364556;22;20057;-68
2023/04/15 07:45:34;;;;;;;15.68;9.25;;;7.80;99.90;;;;;;6365206;22;20341;-67
2023/04/15 07:48:01;;;;;;;14.68;8.98;;;7.90;99.90;;;;;;6365115;22;20025;-68
2023/04/15 07:50:27;;;;;;;16.10;9.48;;;7.90;99.90;;;;;;6364999;22;20022;-67
2023/04/15 07:52:53;;;;;;;20.20;10.55;;;8.00;99.90;;;;;;6364787;22;20042;-68
2023/04/15 07:55:21;;;;;;;14.25;8.40;;;8.00;99.90;;;;;;6365178;22;20019;-68
2023/04/15 07:57:48;;;;;;;16.95;9.02;;;8.00;99.90;;;;;;6364865;22;20345;-68
2023/04/15 08:00:15;;;;;;;13.20;8.73;;;8.10;99.90;;;;;;6365282;22;20022;-68
2023/04/15 08:02:45;;;;;;;19.65;11.25;;;8.10;99.90;;;;;;6336562;22;20335;-68
2023/04/15 08:05:12;;;;;;;15.05;9.82;;;8.20;99.90;;;;;;6336290;22;20414;-68
2023/04/15 08:07:38;;;;;;;18.90;10.45;;;8.30;99.90;;;;;;6364710;22;20089;-68
2023/04/15 08:10:05;;;;;;;16.92;10.82;;;8.30;99.90;;;;;;6364812;22;20483;-68
2023/04/15 08:12:30;;;;;;;16.73;8.93;;;8.40;99.90;;;;;;6364772;22;20014;-67
2023/04/15 08:14:56;;;;;;;15.10;9.00;;;8.50;99.90;;;;;;6364380;22;20095;-68
2023/04/15 08:17:23;;;;;;;16.90;9.77;;;8.40;99.90;;;;;;6364863;22;20023;-68
2023/04/15 08:19:48;;;;;;;14.52;9.63;;;8.60;99.90;;;;;;6364567;22;20014;-68
2023/04/15 08:22:14;;;;;;;14.07;9.20;;;8.70;99.90;;;;;;6336456;22;20022;-68
2023/04/15 08:24:40;;;;;;;14.95;8.88;;;8.70;99.90;;;;;;6310258;22;20022;-68
2023/04/15 08:27:06;;;;;;;16.13;8.45;;;8.70;99.90;;;;;;6364449;22;20018;-68
2023/04/15 08:29:33;;;;;;;12.18;7.15;;;8.70;99.90;;;;;;6336231;22;20457;-68
2023/04/15 08:32:02;;;;;;;11.52;8.45;;;8.80;99.90;;;;;;6364867;22;20101;-68
2023/04/15 08:34:28;;;;;;;15.07;8.18;;;8.90;99.90;;;;;;6336707;22;20087;-67
2023/04/15 08:36:55;;;;;;;11.70;7.50;;;8.90;99.90;;;;;;6336610;22;20033;-69
2023/04/15 08:39:21;;;;;;;11.90;7.22;;;8.90;99.90;;;;;;6365195;22;20076;-69
2023/04/15 08:41:54;;;;;;;9.73;7.07;;;9.00;99.90;;;;;;6364804;22;20318;-68
2023/04/15 08:44:23;;;;;;;8.98;6.45;;;9.00;99.90;;;;;;6351592;22;20116;-68
2023/04/15 08:46:50;;;;;;;7.30;5.80;;;9.10;99.90;;;;;;6332984;22;20109;-68
2023/04/15 08:49:18;;;;;;;10.43;5.32;;;9.10;99.90;;;;;;6304676;22;20041;-68
2023/04/15 08:51:44;;;;;;;7.70;5.30;;;9.20;99.90;;;;;;6304914;22;20027;-68
2023/04/15 08:54:10;;;;;;;8.13;5.47;;;9.10;99.90;;;;;;6304711;22;20025;-68
2023/04/15 08:56:38;;;;;;;8.10;5.32;;;9.10;99.90;;;;;;6304579;22;20018;-68
2023/04/15 08:59:04;;;;;;;8.82;5.03;;;9.10;99.90;;;;;;6304646;22;20136;-68
2023/04/15 09:01:31;;;;;;;9.70;5.18;;;9.10;99.90;;;;;;6304912;22;20026;-68
2023/04/15 09:03:58;;;;;;;8.32;4.80;;;9.10;99.90;;;;;;6332540;22;20093;-68
2023/04/15 09:06:24;;;;;;;9.13;4.35;;;9.10;99.90;;;;;;6304631;22;20023;-68
2023/04/15 09:08:51;;;;;;;7.25;4.20;;;9.10;99.90;;;;;;6332817;22;20011;-68
2023/04/15 09:11:17;;;;;;;7.97;3.63;;;9.10;99.90;;;;;;6332933;22;20018;-68
2023/04/15 09:13:43;;;;;;;7.57;3.58;;;9.10;99.90;;;;;;6333081;22;20307;-68
2023/04/15 09:16:09;;;;;;;5.70;3.70;;;9.10;99.90;;;;;;6304774;22;20059;-69
2023/04/15 09:18:37;;;;;;;5.75;3.85;;;9.10;99.90;;;;;;6333232;22;20018;-67
2023/04/15 09:21:15;;;;;;;4.80;3.47;;;9.20;99.90;;;;;;6332772;22;20097;-68
2023/04/15 09:23:58;;;;;;;6.38;3.70;;;9.00;99.90;;;;;;6333207;22;20042;-68
2023/04/15 09:26:30;;;;;;;;;;;9.00;99.90;;;;;;6333577;22;20037;-67
2023/04/15 09:29:04;;;;;;;8.65;4.05;;;9.00;99.90;;;;;;6305095;22;19968;-67
2023/04/15 09:31:30;;;;;;;5.10;3.78;;;9.00;99.90;;;;;;6332639;22;20061;-67
2023/04/15 09:33:56;;;;;;;5.63;4.18;;;9.10;99.90;;;;;;6304870;22;20026;-67
2023/04/15 09:36:21;;;;;;;5.45;3.35;;;9.10;99.90;;;;;;6333378;22;20023;-68
2023/04/15 09:38:58;;;;;;;7.03;3.40;;;9.10;99.90;;;;;;6304860;22;20345;-68
2023/04/15 09:41:27;;;;;;;6.00;3.08;;;9.20;99.90;;;;;;6332847;22;20019;-68
2023/04/15 09:43:53;;;;;;;5.45;3.30;;;9.20;99.90;;;;;;6304153;22;20450;-68
2023/04/15 09:46:19;;;;;;;6.30;3.90;;;9.30;99.90;;;;;;6332568;22;20026;-68
2023/04/15 09:48:45;;;;;;;6.05;3.33;;;9.20;99.90;;;;;;6332588;22;20019;-68
2023/04/15 09:51:10;;;;;;;6.47;2.95;;;9.30;99.90;;;;;;6332975;22;20089;-67
2023/04/15 09:53:37;;;;;;;7.40;3.00;;;9.40;99.90;;;;;;6332466;22;20178;-68
2023/04/15 09:56:06;;;;;;;3.63;2.90;;;9.40;99.90;;;;;;6304411;22;20046;-68
2023/04/15 09:58:33;;;;;;;4.05;2.83;;;9.40;99.90;;;;;;6304480;22;20076;-69
2023/04/15 10:01:02;;;;;;;5.63;3.45;;;9.40;99.90;;;;;;6304936;22;20018;-68
2023/04/15 10:03:35;;;;;;;3.13;2.85;;;9.40;99.90;;;;;;6332509;22;20085;-68
2023/04/15 10:06:02;;;;;;;6.40;3.38;;;9.40;99.90;;;;;;6333124;22;20340;-68
2023/04/15 10:08:31;;;;;;;8.95;4.22;;;9.40;99.90;;;;;;6305291;22;20337;-68
2023/04/15 10:10:59;;;;;;;4.53;3.20;;;9.50;99.90;;;;;;6305022;22;20026;-69
2023/04/15 10:13:29;;;;;;;8.15;4.68;;;9.40;99.90;;;;;;6332942;22;20089;-69
2023/04/15 10:16:06;;;;;;;4.05;3.00;;;9.50;99.90;;;;;;6304485;22;20034;-68
2023/04/15 10:18:36;;;;;;;4.95;4.10;;;9.50;99.90;;;;;;6332509;22;20426;-68
2023/04/15 10:21:04;;;;;;;4.68;2.60;;;9.60;99.90;;;;;;6332658;22;20113;-68
2023/04/15 10:23:31;;;;;;;3.17;2.40;;;9.50;99.90;;;;;;6304420;22;20015;-68
2023/04/15 10:25:58;;;;;;;4.20;3.53;;;9.50;99.90;;;;;;6332519;22;20096;-68
2023/04/15 10:28:25;;;;;;;4.63;3.05;;;9.50;99.90;;;;;;6331951;22;20100;-69
2023/04/15 10:30:52;;;;;;;3.45;2.97;;;9.50;99.90;;;;;;6334210;22;20011;-68
2023/04/15 10:33:21;;;;;;;7.30;3.85;;;9.60;99.90;;;;;;6334384;22;20022;-68
2023/04/15 10:35:50;;;;;;;3.30;2.75;;;9.60;99.90;;;;;;6306444;22;20026;-68
2023/04/15 10:38:32;;;;;;;3.20;2.70;;;9.60;99.90;;;;;;6306216;22;20015;-68
2023/04/15 10:41:16;;;;;;;4.13;3.30;;;9.60;99.90;;;;;;6334550;22;20027;-68
2023/04/15 10:43:49;;;;;;;2.95;2.65;;;9.60;99.90;;;;;;6333506;22;20019;-68
2023/04/15 10:46:37;;;;;;;3.38;2.20;;;9.60;99.90;;;;;;6334002;22;20022;-68
2023/04/15 10:49:14;;;;;;;4.70;2.70;;;9.60;99.90;;;;;;6306375;22;20025;-68
2023/04/15 10:51:51;;;;;;;5.05;2.63;;;9.60;99.90;;;;;;6306313;22;20027;-69
2023/04/15 10:54:23;;;;;;;2.90;2.53;;;9.60;99.90;;;;;;6280608;22;20492;-68
2023/04/15 10:57:08;;;;;;;4.13;2.78;;;9.70;99.90;;;;;;6306211;22;20458;-68
2023/04/15 10:59:59;;;;;;;3.35;2.35;;;9.70;99.90;;;;;;6333767;22;20112;-68
2023/04/15 11:02:45;;;;;;;6.93;2.85;;;9.70;99.90;;;;;;6334463;22;20090;-68
2023/04/15 11:05:13;;;;;;;3.72;2.38;;;9.70;99.90;;;;;;6334219;22;20144;-68
2023/04/15 11:07:49;;;;;;;3.22;2.75;;;9.70;99.90;;;;;;6306303;22;20021;-68
2023/04/15 11:10:30;;;;;;;3.20;2.80;;;9.70;99.90;;;;;;6334435;22;20115;-68
2023/04/15 11:13:15;;;;;;;4.22;2.58;;;9.80;99.90;;;;;;6334066;22;20026;-68
2023/04/15 11:15:45;;;;;;;2.78;2.40;;;9.90;99.90;;;;;;6306973;22;20034;-68
2023/04/15 11:18:17;;;;;;;2.58;2.38;;;9.80;99.90;;;;;;6334998;22;20022;-68
2023/04/15 11:20:49;;;;;;;4.47;3.20;;;9.90;99.90;;;;;;6306557;22;20046;-68
2023/04/15 11:23:16;;;;;;;3.38;2.70;;;9.80;99.90;;;;;;6306309;22;20089;-68
2023/04/15 11:25:42;;;;;;;2.70;2.47;;;9.80;99.90;;;;;;6334373;22;20023;-68
2023/04/15 11:28:09;;;;;;;2.50;2.30;;;9.90;99.90;;;;;;6306224;22;20022;-69
2023/04/15 11:30:37;;;;;;;3.53;2.40;;;9.90;99.90;;;;;;6334397;22;20023;-68
2023/04/15 11:33:08;;;;;;;3.15;2.58;;;9.90;99.90;;;;;;6334479;22;20054;-67
2023/04/15 11:35:34;;;;;;;4.43;2.60;;;9.90;99.90;;;;;;6334600;22;20648;-67
2023/04/15 11:38:04;;;;;;;6.63;3.25;;;9.90;99.90;;;;;;6305878;22;20442;-67
2023/04/15 11:40:32;;;;;;;3.25;2.35;;;9.90;99.90;;;;;;6333698;22;20075;-67
2023/04/15 11:43:15;;;;;;;5.70;2.97;;;10.00;99.90;;;;;;6305375;22;20357;-68
2023/04/15 11:46:00;;;;;;;3.97;2.60;;;10.00;99.90;;;;;;6305659;22;20019;-68
2023/04/15 11:48:28;;;;;;;3.42;2.20;;;10.00;99.90;;;;;;6334297;22;20034;-68
2023/04/15 11:50:54;;;;;;;3.30;2.40;;;10.00;99.90;;;;;;6334504;22;20159;-68
2023/04/15 11:53:20;;;;;;;4.95;2.85;;;10.10;99.90;;;;;;6334505;22;20387;-67
2023/04/15 11:55:47;;;;;;;4.45;2.47;;;10.10;99.90;;;;;;6333980;22;20022;-68
2023/04/15 11:58:36;;;;;;;5.30;2.90;;;10.00;99.90;;;;;;6334482;22;20022;-68
2023/04/15 12:01:02;;;;;;;6.20;3.13;;;10.00;99.90;;;;;;6281732;22;20029;-68
2023/04/15 12:03:39;;;;;;;8.05;3.78;;;9.90;99.90;;;;;;6334135;22;20022;-69
2023/04/15 12:06:05;;;;;;;6.60;3.05;;;10.00;99.90;;;;;;6365686;22;20311;-69
2023/04/15 12:09:09;;;;;;;6.65;3.58;;;9.90;99.90;;;;;;6365569;22;20037;-67
2023/04/15 12:11:37;;;;;;;7.82;2.65;;;9.90;99.90;;;;;;6365168;22;20349;-68
2023/04/15 12:14:09;;;;;;;7.22;4.10;;;9.90;99.90;;;;;;6337053;22;20042;-68
2023/04/15 12:16:38;;;;;;;5.43;4.07;;;9.90;99.90;;;;;;6365770;22;20022;-68
2023/04/15 12:19:07;;;;;;;3.65;2.47;;;9.90;99.90;;;;;;6365454;22;20018;-68
2023/04/15 12:21:35;;;;;;;4.82;2.90;;;9.90;99.90;;;;;;6365853;22;20311;-68
2023/04/15 12:24:03;;;;;;;5.68;3.30;;;9.90;99.90;;;;;;6365575;22;20018;-68
2023/04/15 12:26:36;;;;;;;9.63;3.10;;;9.90;99.90;;;;;;6365558;22;20010;-68
2023/04/15 12:29:07;;;;;;;4.82;2.95;;;9.80;99.90;;;;;;6337172;22;20501;-68
2023/04/15 12:31:35;;;;;;;4.38;2.72;;;9.80;99.90;;;;;;6365321;22;20112;-69
2023/04/15 12:34:02;;;;;;;5.45;2.60;;;9.80;99.90;;;;;;6365350;22;20094;-69
2023/04/15 12:36:35;;;;;;;3.58;2.58;;;9.90;99.90;;;;;;6336973;22;20026;-69
2023/04/15 12:39:02;;;;;;;7.53;3.65;;;9.90;99.90;;;;;;6364702;22;20022;-69
2023/04/15 12:41:27;;;;;;;3.70;2.50;;;9.90;99.90;;;;;;6365303;22;20024;-67
2023/04/15 12:43:53;;;;;;;8.50;2.50;;;10.00;99.90;;;;;;6364475;22;20918;-67
2023/04/15 12:46:19;;;;;;;9.68;2.53;;;10.00;99.90;;;;;;6336885;22;20027;-67
2023/04/15 12:48:45;;;;;;;7.38;2.97;;;10.10;99.90;;;;;;6365021;22;20010;-67
2023/04/15 12:51:10;;;;;;;6.80;2.55;;;10.10;99.90;;;;;;6364696;22;20119;-67
2023/04/15 12:53:36;;;;;;;5.30;2.50;;;10.10;99.90;;;;;;6364366;22;20021;-68